sensor_id;sensor_type;location;lat;lon;timestamp;P1;durP1;ratioP1;P2;durP2;ratioP2
6751;SDS011;3413;47.680;9.166;2022-08-21T00:00:47;2.50;;;1.80;;
6751;SDS011;3413;47.680;9.166;2022-08-21T00:05:50;2.53;;;1.90;;
6751;SDS011;3413;47.680;9.166;2022-08-21T00:10:53;2.87;;;2.07;;
6751;SDS011;3413;47.680;9.166;2022-08-21T00:15:55;3.50;;;2.10;;
6751;SDS011;3413;47.680;9.166;2022-08-21T00:20:57;3.27;;;1.80;;
6751;SDS011;3413;47.680;9.166;2022-08-21T00:25:59;4.73;;;2.33;;
6751;SDS011;3413;47.680;9.166;2022-08-21T00:31:01;5.00;;;2.00;;
6751;SDS011;3413;47.680;9.166;2022-08-21T00:36:05;3.77;;;1.90;;
6751;SDS011;3413;47.680;9.166;2022-08-21T00:41:08;3.17;;;1.87;;
6751;SDS011;3413;47.680;9.166;2022-08-21T00:46:31;3.13;;;2.00;;
6751;SDS011;3413;47.680;9.166;2022-08-21T00:51:37;6.00;;;3.67;;
6751;SDS011;3413;47.680;9.166;2022-08-21T00:56:43;4.13;;;2.30;;
6751;SDS011;3413;47.680;9.166;2022-08-21T01:01:46;2.80;;;1.83;;
6751;SDS011;3413;47.680;9.166;2022-08-21T01:06:48;3.90;;;2.20;;
6751;SDS011;3413;47.680;9.166;2022-08-21T01:11:50;3.40;;;2.67;;
6751;SDS011;3413;47.680;9.166;2022-08-21T01:16:53;3.27;;;2.23;;
6751;SDS011;3413;47.680;9.166;2022-08-21T01:21:55;7.70;;;3.23;;
6751;SDS011;3413;47.680;9.166;2022-08-21T01:26:58;5.70;;;4.00;;
6751;SDS011;3413;47.680;9.166;2022-08-21T01:32:06;5.37;;;3.10;;
6751;SDS011;3413;47.680;9.166;2022-08-21T01:37:13;6.03;;;3.50;;
6751;SDS011;3413;47.680;9.166;2022-08-21T01:42:18;12.77;;;7.30;;
6751;SDS011;3413;47.680;9.166;2022-08-21T01:47:20;7.10;;;4.80;;
6751;SDS011;3413;47.680;9.166;2022-08-21T01:52:22;7.07;;;3.80;;
6751;SDS011;3413;47.680;9.166;2022-08-21T01:57:24;7.93;;;4.93;;
6751;SDS011;3413;47.680;9.166;2022-08-21T02:02:26;10.77;;;6.23;;
6751;SDS011;3413;47.680;9.166;2022-08-21T02:07:35;8.10;;;5.17;;
6751;SDS011;3413;47.680;9.166;2022-08-21T02:12:37;11.90;;;6.20;;
6751;SDS011;3413;47.680;9.166;2022-08-21T02:22:45;12.47;;;7.83;;
6751;SDS011;3413;47.680;9.166;2022-08-21T02:27:47;10.07;;;7.77;;
6751;SDS011;3413;47.680;9.166;2022-08-21T02:32:50;10.03;;;7.30;;
6751;SDS011;3413;47.680;9.166;2022-08-21T02:37:54;27.43;;;7.03;;
6751;SDS011;3413;47.680;9.166;2022-08-21T02:43:00;11.33;;;8.17;;
6751;SDS011;3413;47.680;9.166;2022-08-21T02:48:05;12.30;;;8.50;;
6751;SDS011;3413;47.680;9.166;2022-08-21T02:53:10;11.97;;;8.13;;
6751;SDS011;3413;47.680;9.166;2022-08-21T02:58:18;11.80;;;8.30;;
6751;SDS011;3413;47.680;9.166;2022-08-21T03:03:22;12.53;;;8.87;;
6751;SDS011;3413;47.680;9.166;2022-08-21T03:08:24;13.93;;;9.03;;
6751;SDS011;3413;47.680;9.166;2022-08-21T03:13:28;14.53;;;9.87;;
6751;SDS011;3413;47.680;9.166;2022-08-21T03:18:30;15.57;;;9.63;;
6751;SDS011;3413;47.680;9.166;2022-08-21T03:23:32;16.50;;;9.90;;
6751;SDS011;3413;47.680;9.166;2022-08-21T03:28:34;17.87;;;9.70;;
6751;SDS011;3413;47.680;9.166;2022-08-21T03:33:36;15.47;;;10.40;;
6751;SDS011;3413;47.680;9.166;2022-08-21T03:38:38;16.43;;;11.10;;
6751;SDS011;3413;47.680;9.166;2022-08-21T03:43:40;16.67;;;10.70;;
6751;SDS011;3413;47.680;9.166;2022-08-21T03:48:43;16.17;;;10.60;;
6751;SDS011;3413;47.680;9.166;2022-08-21T03:53:45;13.73;;;9.77;;
6751;SDS011;3413;47.680;9.166;2022-08-21T03:58:47;15.53;;;10.20;;
6751;SDS011;3413;47.680;9.166;2022-08-21T04:03:49;18.00;;;10.60;;
6751;SDS011;3413;47.680;9.166;2022-08-21T04:08:52;17.20;;;10.27;;
6751;SDS011;3413;47.680;9.166;2022-08-21T04:13:54;14.40;;;10.10;;
6751;SDS011;3413;47.680;9.166;2022-08-21T04:18:56;12.43;;;9.27;;
6751;SDS011;3413;47.680;9.166;2022-08-21T04:23:58;14.10;;;9.70;;
6751;SDS011;3413;47.680;9.166;2022-08-21T04:29:00;16.23;;;9.10;;
6751;SDS011;3413;47.680;9.166;2022-08-21T04:34:03;12.17;;;8.73;;
6751;SDS011;3413;47.680;9.166;2022-08-21T04:39:06;12.70;;;9.30;;
6751;SDS011;3413;47.680;9.166;2022-08-21T04:44:10;14.73;;;9.50;;
6751;SDS011;3413;47.680;9.166;2022-08-21T04:49:12;11.53;;;9.03;;
6751;SDS011;3413;47.680;9.166;2022-08-21T04:54:17;10.60;;;8.00;;
6751;SDS011;3413;47.680;9.166;2022-08-21T04:59:23;11.13;;;8.30;;
6751;SDS011;3413;47.680;9.166;2022-08-21T05:04:26;12.67;;;8.80;;
6751;SDS011;3413;47.680;9.166;2022-08-21T05:09:31;9.30;;;7.40;;
6751;SDS011;3413;47.680;9.166;2022-08-21T05:14:34;11.07;;;8.13;;
6751;SDS011;3413;47.680;9.166;2022-08-21T05:19:36;12.97;;;9.00;;
6751;SDS011;3413;47.680;9.166;2022-08-21T05:24:38;12.27;;;8.87;;
6751;SDS011;3413;47.680;9.166;2022-08-21T05:29:41;13.80;;;9.80;;
6751;SDS011;3413;47.680;9.166;2022-08-21T05:34:43;15.20;;;10.13;;
6751;SDS011;3413;47.680;9.166;2022-08-21T05:39:45;12.53;;;8.73;;
6751;SDS011;3413;47.680;9.166;2022-08-21T05:45:08;14.87;;;10.37;;
6751;SDS011;3413;47.680;9.166;2022-08-21T05:50:10;12.97;;;9.20;;
6751;SDS011;3413;47.680;9.166;2022-08-21T05:55:12;11.93;;;7.90;;
6751;SDS011;3413;47.680;9.166;2022-08-21T06:00:15;12.27;;;8.37;;
6751;SDS011;3413;47.680;9.166;2022-08-21T06:05:18;10.40;;;7.90;;
6751;SDS011;3413;47.680;9.166;2022-08-21T06:10:37;8.77;;;6.40;;
6751;SDS011;3413;47.680;9.166;2022-08-21T06:15:42;10.30;;;5.60;;
6751;SDS011;3413;47.680;9.166;2022-08-21T06:20:44;10.43;;;6.27;;
6751;SDS011;3413;47.680;9.166;2022-08-21T06:25:46;11.77;;;6.50;;
6751;SDS011;3413;47.680;9.166;2022-08-21T06:30:47;8.27;;;5.60;;
6751;SDS011;3413;47.680;9.166;2022-08-21T06:35:49;7.30;;;5.20;;
6751;SDS011;3413;47.680;9.166;2022-08-21T06:40:52;8.00;;;5.53;;
6751;SDS011;3413;47.680;9.166;2022-08-21T06:45:54;7.83;;;5.47;;
6751;SDS011;3413;47.680;9.166;2022-08-21T06:50:56;7.27;;;5.40;;
6751;SDS011;3413;47.680;9.166;2022-08-21T06:55:58;6.67;;;4.80;;
6751;SDS011;3413;47.680;9.166;2022-08-21T07:01:00;7.80;;;4.67;;
6751;SDS011;3413;47.680;9.166;2022-08-21T07:06:03;7.77;;;4.37;;
6751;SDS011;3413;47.680;9.166;2022-08-21T07:11:11;6.53;;;4.50;;
6751;SDS011;3413;47.680;9.166;2022-08-21T07:16:17;11.30;;;4.30;;
6751;SDS011;3413;47.680;9.166;2022-08-21T07:21:20;8.60;;;3.90;;
6751;SDS011;3413;47.680;9.166;2022-08-21T07:26:26;5.37;;;3.17;;
6751;SDS011;3413;47.680;9.166;2022-08-21T07:31:28;4.80;;;3.40;;
6751;SDS011;3413;47.680;9.166;2022-08-21T07:36:30;7.30;;;3.10;;
6751;SDS011;3413;47.680;9.166;2022-08-21T07:41:35;6.60;;;3.63;;
6751;SDS011;3413;47.680;9.166;2022-08-21T07:46:37;4.97;;;3.00;;
6751;SDS011;3413;47.680;9.166;2022-08-21T07:51:39;8.13;;;3.50;;
6751;SDS011;3413;47.680;9.166;2022-08-21T07:56:41;6.67;;;3.03;;
6751;SDS011;3413;47.680;9.166;2022-08-21T08:01:43;4.57;;;2.80;;
6751;SDS011;3413;47.680;9.166;2022-08-21T08:06:46;7.40;;;2.97;;
6751;SDS011;3413;47.680;9.166;2022-08-21T08:11:48;4.20;;;2.87;;
6751;SDS011;3413;47.680;9.166;2022-08-21T08:16:50;4.70;;;2.43;;
6751;SDS011;3413;47.680;9.166;2022-08-21T08:21:52;4.97;;;2.70;;
6751;SDS011;3413;47.680;9.166;2022-08-21T08:26:54;5.10;;;2.50;;
6751;SDS011;3413;47.680;9.166;2022-08-21T08:31:58;5.13;;;2.43;;
6751;SDS011;3413;47.680;9.166;2022-08-21T08:37:00;4.27;;;2.80;;
6751;SDS011;3413;47.680;9.166;2022-08-21T08:42:07;5.87;;;2.70;;
6751;SDS011;3413;47.680;9.166;2022-08-21T08:47:36;7.70;;;3.27;;
6751;SDS011;3413;47.680;9.166;2022-08-21T08:52:43;5.23;;;2.90;;
6751;SDS011;3413;47.680;9.166;2022-08-21T08:57:51;5.60;;;3.20;;
6751;SDS011;3413;47.680;9.166;2022-08-21T09:02:54;6.63;;;2.67;;
6751;SDS011;3413;47.680;9.166;2022-08-21T09:13:50;4.90;;;2.87;;
6751;SDS011;3413;47.680;9.166;2022-08-21T09:29:27;4.30;;;2.87;;
6751;SDS011;3413;47.680;9.166;2022-08-21T09:34:33;7.70;;;3.30;;
6751;SDS011;3413;47.680;9.166;2022-08-21T09:39:39;5.57;;;2.73;;
6751;SDS011;3413;47.680;9.166;2022-08-21T09:44:48;4.70;;;3.10;;
6751;SDS011;3413;47.680;9.166;2022-08-21T09:49:50;6.90;;;3.30;;
6751;SDS011;3413;47.680;9.166;2022-08-21T09:54:53;5.00;;;3.10;;
6751;SDS011;3413;47.680;9.166;2022-08-21T10:00:06;5.70;;;3.10;;
6751;SDS011;3413;47.680;9.166;2022-08-21T10:05:25;5.07;;;2.67;;
6751;SDS011;3413;47.680;9.166;2022-08-21T10:10:30;4.77;;;2.80;;
6751;SDS011;3413;47.680;9.166;2022-08-21T10:15:48;4.60;;;2.90;;
6751;SDS011;3413;47.680;9.166;2022-08-21T10:21:04;6.40;;;2.97;;
6751;SDS011;3413;47.680;9.166;2022-08-21T10:26:19;7.30;;;2.30;;
6751;SDS011;3413;47.680;9.166;2022-08-21T10:36:33;6.37;;;2.03;;
6751;SDS011;3413;47.680;9.166;2022-08-21T10:47:05;4.17;;;2.20;;
6751;SDS011;3413;47.680;9.166;2022-08-21T10:52:34;3.27;;;1.70;;
6751;SDS011;3413;47.680;9.166;2022-08-21T11:08:07;7.20;;;2.23;;
6751;SDS011;3413;47.680;9.166;2022-08-21T11:18:57;5.63;;;1.83;;
6751;SDS011;3413;47.680;9.166;2022-08-21T11:29:19;4.43;;;1.97;;
6751;SDS011;3413;47.680;9.166;2022-08-21T11:34:27;3.50;;;1.50;;
6751;SDS011;3413;47.680;9.166;2022-08-21T11:40:01;4.87;;;2.30;;
6751;SDS011;3413;47.680;9.166;2022-08-21T11:45:22;5.53;;;1.93;;
6751;SDS011;3413;47.680;9.166;2022-08-21T11:50:32;4.13;;;1.73;;
6751;SDS011;3413;47.680;9.166;2022-08-21T11:55:44;4.30;;;1.80;;
6751;SDS011;3413;47.680;9.166;2022-08-21T12:01:19;4.90;;;1.90;;
6751;SDS011;3413;47.680;9.166;2022-08-21T12:06:32;4.03;;;1.50;;
6751;SDS011;3413;47.680;9.166;2022-08-21T12:11:48;2.93;;;1.30;;
6751;SDS011;3413;47.680;9.166;2022-08-21T12:17:20;3.37;;;1.80;;
6751;SDS011;3413;47.680;9.166;2022-08-21T12:22:34;3.63;;;1.70;;
6751;SDS011;3413;47.680;9.166;2022-08-21T12:28:02;3.40;;;1.80;;
6751;SDS011;3413;47.680;9.166;2022-08-21T12:33:19;5.70;;;1.40;;
6751;SDS011;3413;47.680;9.166;2022-08-21T12:38:33;3.50;;;1.40;;
6751;SDS011;3413;47.680;9.166;2022-08-21T12:43:51;3.03;;;1.30;;
6751;SDS011;3413;47.680;9.166;2022-08-21T12:48:56;4.10;;;1.20;;
6751;SDS011;3413;47.680;9.166;2022-08-21T12:54:02;2.17;;;1.30;;
6751;SDS011;3413;47.680;9.166;2022-08-21T12:59:06;2.07;;;1.37;;
6751;SDS011;3413;47.680;9.166;2022-08-21T13:04:19;3.60;;;1.17;;
6751;SDS011;3413;47.680;9.166;2022-08-21T13:09:24;4.03;;;1.70;;
6751;SDS011;3413;47.680;9.166;2022-08-21T13:14:29;2.73;;;1.30;;
6751;SDS011;3413;47.680;9.166;2022-08-21T13:19:38;2.83;;;1.13;;
6751;SDS011;3413;47.680;9.166;2022-08-21T13:24:41;4.53;;;1.20;;
6751;SDS011;3413;47.680;9.166;2022-08-21T13:29:44;3.50;;;1.50;;
6751;SDS011;3413;47.680;9.166;2022-08-21T13:34:54;1.90;;;1.03;;
6751;SDS011;3413;47.680;9.166;2022-08-21T13:39:57;1.80;;;1.10;;
6751;SDS011;3413;47.680;9.166;2022-08-21T13:44:59;2.27;;;1.10;;
6751;SDS011;3413;47.680;9.166;2022-08-21T13:50:01;1.70;;;0.90;;
6751;SDS011;3413;47.680;9.166;2022-08-21T13:55:12;2.40;;;1.17;;
6751;SDS011;3413;47.680;9.166;2022-08-21T14:00:18;2.63;;;1.17;;
6751;SDS011;3413;47.680;9.166;2022-08-21T14:05:27;2.43;;;1.30;;
6751;SDS011;3413;47.680;9.166;2022-08-21T14:10:34;2.13;;;1.00;;
6751;SDS011;3413;47.680;9.166;2022-08-21T14:15:44;4.20;;;1.30;;
6751;SDS011;3413;47.680;9.166;2022-08-21T14:21:08;2.70;;;1.30;;
6751;SDS011;3413;47.680;9.166;2022-08-21T14:26:11;1.90;;;0.97;;
6751;SDS011;3413;47.680;9.166;2022-08-21T14:31:18;2.70;;;1.30;;
6751;SDS011;3413;47.680;9.166;2022-08-21T14:36:22;3.30;;;1.20;;
6751;SDS011;3413;47.680;9.166;2022-08-21T14:41:25;2.00;;;1.10;;
6751;SDS011;3413;47.680;9.166;2022-08-21T14:46:29;6.80;;;4.83;;
6751;SDS011;3413;47.680;9.166;2022-08-21T14:51:33;2.10;;;1.07;;
6751;SDS011;3413;47.680;9.166;2022-08-21T14:56:36;2.63;;;1.20;;
6751;SDS011;3413;47.680;9.166;2022-08-21T15:01:38;2.30;;;1.00;;
6751;SDS011;3413;47.680;9.166;2022-08-21T15:06:40;3.00;;;1.30;;
6751;SDS011;3413;47.680;9.166;2022-08-21T15:11:43;3.30;;;1.23;;
6751;SDS011;3413;47.680;9.166;2022-08-21T15:16:45;1.90;;;1.10;;
6751;SDS011;3413;47.680;9.166;2022-08-21T15:21:47;1.87;;;1.00;;
6751;SDS011;3413;47.680;9.166;2022-08-21T15:26:50;2.60;;;1.20;;
6751;SDS011;3413;47.680;9.166;2022-08-21T15:31:54;2.10;;;1.20;;
6751;SDS011;3413;47.680;9.166;2022-08-21T15:36:58;1.97;;;1.20;;
6751;SDS011;3413;47.680;9.166;2022-08-21T15:42:01;2.87;;;1.20;;
6751;SDS011;3413;47.680;9.166;2022-08-21T15:47:12;4.00;;;1.70;;
6751;SDS011;3413;47.680;9.166;2022-08-21T15:52:17;2.53;;;1.03;;
6751;SDS011;3413;47.680;9.166;2022-08-21T15:57:21;4.27;;;1.40;;
6751;SDS011;3413;47.680;9.166;2022-08-21T16:02:26;3.27;;;1.40;;
6751;SDS011;3413;47.680;9.166;2022-08-21T16:07:30;3.97;;;2.30;;
6751;SDS011;3413;47.680;9.166;2022-08-21T16:12:33;2.00;;;1.00;;
6751;SDS011;3413;47.680;9.166;2022-08-21T16:17:40;5.13;;;1.30;;
6751;SDS011;3413;47.680;9.166;2022-08-21T16:22:45;3.17;;;1.43;;
6751;SDS011;3413;47.680;9.166;2022-08-21T16:27:50;3.03;;;1.40;;
6751;SDS011;3413;47.680;9.166;2022-08-21T16:33:00;4.67;;;2.03;;
6751;SDS011;3413;47.680;9.166;2022-08-21T16:38:04;3.53;;;1.70;;
6751;SDS011;3413;47.680;9.166;2022-08-21T16:43:06;3.53;;;1.70;;
6751;SDS011;3413;47.680;9.166;2022-08-21T16:48:08;2.00;;;1.20;;
6751;SDS011;3413;47.680;9.166;2022-08-21T16:53:10;3.00;;;1.60;;
6751;SDS011;3413;47.680;9.166;2022-08-21T16:58:34;2.23;;;1.30;;
6751;SDS011;3413;47.680;9.166;2022-08-21T17:03:38;1.93;;;1.10;;
6751;SDS011;3413;47.680;9.166;2022-08-21T17:08:42;2.57;;;1.57;;
6751;SDS011;3413;47.680;9.166;2022-08-21T17:13:44;1.83;;;1.20;;
6751;SDS011;3413;47.680;9.166;2022-08-21T17:18:49;2.90;;;1.40;;
6751;SDS011;3413;47.680;9.166;2022-08-21T17:23:55;3.03;;;1.53;;
6751;SDS011;3413;47.680;9.166;2022-08-21T17:28:57;2.57;;;1.40;;
6751;SDS011;3413;47.680;9.166;2022-08-21T17:34:00;3.53;;;1.70;;
6751;SDS011;3413;47.680;9.166;2022-08-21T17:39:02;5.43;;;3.40;;
6751;SDS011;3413;47.680;9.166;2022-08-21T17:44:05;4.20;;;2.30;;
6751;SDS011;3413;47.680;9.166;2022-08-21T17:49:10;3.10;;;2.00;;
6751;SDS011;3413;47.680;9.166;2022-08-21T17:54:14;5.70;;;2.70;;
6751;SDS011;3413;47.680;9.166;2022-08-21T17:59:16;6.30;;;2.67;;
6751;SDS011;3413;47.680;9.166;2022-08-21T18:04:17;5.60;;;3.00;;
6751;SDS011;3413;47.680;9.166;2022-08-21T18:09:19;3.53;;;2.10;;
6751;SDS011;3413;47.680;9.166;2022-08-21T18:14:26;3.33;;;1.60;;
6751;SDS011;3413;47.680;9.166;2022-08-21T18:19:31;4.90;;;2.00;;
6751;SDS011;3413;47.680;9.166;2022-08-21T18:24:33;8.57;;;3.07;;
6751;SDS011;3413;47.680;9.166;2022-08-21T18:29:37;3.73;;;2.07;;
6751;SDS011;3413;47.680;9.166;2022-08-21T18:34:47;4.37;;;2.07;;
6751;SDS011;3413;47.680;9.166;2022-08-21T18:39:50;5.80;;;2.57;;
6751;SDS011;3413;47.680;9.166;2022-08-21T18:44:52;6.50;;;3.07;;
6751;SDS011;3413;47.680;9.166;2022-08-21T18:49:59;4.93;;;2.10;;
6751;SDS011;3413;47.680;9.166;2022-08-21T18:55:02;5.07;;;2.57;;
6751;SDS011;3413;47.680;9.166;2022-08-21T19:00:08;7.80;;;3.80;;
6751;SDS011;3413;47.680;9.166;2022-08-21T19:05:15;3.90;;;1.90;;
6751;SDS011;3413;47.680;9.166;2022-08-21T19:10:18;6.13;;;1.60;;
6751;SDS011;3413;47.680;9.166;2022-08-21T19:15:29;3.63;;;1.90;;
6751;SDS011;3413;47.680;9.166;2022-08-21T19:20:33;5.37;;;2.17;;
6751;SDS011;3413;47.680;9.166;2022-08-21T19:25:37;3.20;;;2.20;;
6751;SDS011;3413;47.680;9.166;2022-08-21T19:31:02;4.80;;;2.13;;
6751;SDS011;3413;47.680;9.166;2022-08-21T19:36:35;4.40;;;1.90;;
6751;SDS011;3413;47.680;9.166;2022-08-21T19:41:39;3.30;;;2.00;;
6751;SDS011;3413;47.680;9.166;2022-08-21T19:46:43;4.67;;;2.50;;
6751;SDS011;3413;47.680;9.166;2022-08-21T19:51:50;3.40;;;1.60;;
6751;SDS011;3413;47.680;9.166;2022-08-21T19:56:54;9.10;;;2.50;;
6751;SDS011;3413;47.680;9.166;2022-08-21T20:01:57;5.53;;;2.17;;
6751;SDS011;3413;47.680;9.166;2022-08-21T20:07:00;4.87;;;2.10;;
6751;SDS011;3413;47.680;9.166;2022-08-21T20:12:05;3.53;;;2.27;;
6751;SDS011;3413;47.680;9.166;2022-08-21T20:17:11;2.53;;;1.83;;
6751;SDS011;3413;47.680;9.166;2022-08-21T20:22:14;3.07;;;1.87;;
6751;SDS011;3413;47.680;9.166;2022-08-21T20:27:21;2.97;;;1.93;;
6751;SDS011;3413;47.680;9.166;2022-08-21T20:32:23;4.97;;;2.50;;
6751;SDS011;3413;47.680;9.166;2022-08-21T20:37:26;5.90;;;2.03;;
6751;SDS011;3413;47.680;9.166;2022-08-21T20:42:41;3.87;;;2.20;;
6751;SDS011;3413;47.680;9.166;2022-08-21T20:47:48;5.40;;;2.03;;
6751;SDS011;3413;47.680;9.166;2022-08-21T20:52:55;5.53;;;1.93;;
6751;SDS011;3413;47.680;9.166;2022-08-21T20:58:06;4.17;;;2.10;;
6751;SDS011;3413;47.680;9.166;2022-08-21T21:03:15;4.67;;;2.23;;
6751;SDS011;3413;47.680;9.166;2022-08-21T21:08:41;3.53;;;2.00;;
6751;SDS011;3413;47.680;9.166;2022-08-21T21:13:54;4.53;;;2.43;;
6751;SDS011;3413;47.680;9.166;2022-08-21T21:24:08;7.60;;;2.50;;
6751;SDS011;3413;47.680;9.166;2022-08-21T21:29:21;4.07;;;2.27;;
6751;SDS011;3413;47.680;9.166;2022-08-21T21:34:32;5.90;;;2.70;;
6751;SDS011;3413;47.680;9.166;2022-08-21T21:39:50;8.30;;;2.20;;
6751;SDS011;3413;47.680;9.166;2022-08-21T21:45:22;5.13;;;2.50;;
6751;SDS011;3413;47.680;9.166;2022-08-21T22:01:17;6.10;;;2.53;;
6751;SDS011;3413;47.680;9.166;2022-08-21T22:06:35;3.83;;;2.17;;
6751;SDS011;3413;47.680;9.166;2022-08-21T22:11:54;5.67;;;2.10;;
6751;SDS011;3413;47.680;9.166;2022-08-21T22:16:59;4.93;;;2.60;;
6751;SDS011;3413;47.680;9.166;2022-08-21T22:22:14;4.30;;;2.40;;
6751;SDS011;3413;47.680;9.166;2022-08-21T22:27:22;3.97;;;2.50;;
6751;SDS011;3413;47.680;9.166;2022-08-21T22:32:35;4.13;;;2.30;;
6751;SDS011;3413;47.680;9.166;2022-08-21T22:37:50;4.60;;;2.70;;
6751;SDS011;3413;47.680;9.166;2022-08-21T22:43:08;4.83;;;2.70;;
6751;SDS011;3413;47.680;9.166;2022-08-21T22:48:18;3.87;;;2.43;;
6751;SDS011;3413;47.680;9.166;2022-08-21T22:53:24;4.00;;;2.57;;
6751;SDS011;3413;47.680;9.166;2022-08-21T22:58:33;3.40;;;2.20;;
6751;SDS011;3413;47.680;9.166;2022-08-21T23:03:46;4.40;;;2.43;;
6751;SDS011;3413;47.680;9.166;2022-08-21T23:08:50;4.27;;;2.47;;
6751;SDS011;3413;47.680;9.166;2022-08-21T23:13:53;3.17;;;2.27;;
6751;SDS011;3413;47.680;9.166;2022-08-21T23:29:50;3.33;;;2.20;;
6751;SDS011;3413;47.680;9.166;2022-08-21T23:35:14;5.10;;;2.90;;
6751;SDS011;3413;47.680;9.166;2022-08-21T23:40:41;7.77;;;2.40;;
6751;SDS011;3413;47.680;9.166;2022-08-21T23:51:12;4.90;;;2.33;;
